CMF weather

Chambéry-Savoie Airport
Chambéry/Aix-les-Bains, Rhône Alpes, France

Public forecast

Using degrees Celsius for public forecast. Weather courtesy of forecast.io.

METAR (pilot weather report)

Retrieved 2019/05/22 18:30 UTC (0 seconds ago):

LFLB 221830Z AUTO 34007KT 9999 BKN076 19/09 Q1017 NOSIG

TAF (pilot weather forecast)

Retrieved 2019/05/22 12:46 UTC (6 hours ago):

TAF LFLB 221100Z 2212/2312 36008KT 9999 FEW060